Latest Weather Observations for King Island Airport

IDT60801

Issued at 9:51 pm EDT Saturday 22 January 2022 (issued every 10 minutes, with the page automatically refreshed every 10 minutes)

About weather observations | Map of weather stations | Latest weather observations for TAS | Other Formats
Station Details ID: 098017 Name: KING ISLAND AIRPORT Lat: -39.88 Lon: 143.89 Height: 35.42 m
Data from the previous 72 hours. | See also: Recent months at King Island Airport
Date/Time
EDT
Temp
°C
App
Temp
°C
Dew
Point
°C
Rel
Hum
%
Delta-T
°C
Wind Press
QNH
hPa
Press
MSL
hPa
Rain since
9am
mm
Dir  Spd
km/h
Gust
km/h
Spd
kts
Gust
kts
22/09:30pm 17.8 15.1 16.7 93 0.7 E 26 32 14 17 1019.7 1019.7 0.0
22/09:00pm 18.0 15.7 16.7 92 0.8 E 24 32 13 17 1019.7 1019.7 0.0
22/08:30pm 18.7 16.0 16.5 87 1.3 E 26 35 14 19 1019.7 1019.7 0.0
22/08:00pm 19.8 17.4 16.4 81 2.0 E 24 32 13 17 1019.6 1019.6 0.0
22/07:30pm 20.9 18.1 16.3 75 2.8 E 26 35 14 19 1019.5 1019.5 0.0
22/07:00pm 22.2 18.8 15.8 67 3.8 E 28 35 15 19 1019.4 1019.4 0.0
22/06:30pm 22.8 19.3 15.4 63 4.4 ENE 28 37 15 20 1019.5 1019.5 0.0
22/06:00pm 23.7 19.7 15.2 59 5.1 ENE 30 39 16 21 1019.6 1019.6 0.0
22/05:30pm 23.6 19.1 14.9 58 5.2 E 32 39 17 21 1019.7 1019.7 0.0
22/05:00pm 24.0 20.6 15.8 60 5.0 ENE 28 35 15 19 1019.9 1019.9 0.0
22/04:30pm 24.1 20.6 15.6 59 5.1 E 28 35 15 19 1020.1 1020.1 0.0
22/04:00pm 24.8 22.1 16.5 60 5.1 E 26 33 14 18 1020.2 1020.2 0.0
22/03:30pm 24.5 21.9 16.0 59 5.2 E 24 32 13 17 1020.4 1020.4 0.0
22/03:00pm 24.6 22.7 16.6 61 4.9 E 22 30 12 16 1020.6 1020.6 0.0
22/02:30pm 24.3 22.6 17.1 64 4.5 E 22 28 12 15 1020.9 1020.9 0.0
22/02:00pm 23.7 21.9 17.0 66 4.1 E 22 28 12 15 1021.2 1021.2 0.0
22/01:30pm 23.7 21.6 17.2 67 4.0 E 24 32 13 17 1021.5 1021.5 0.0
22/01:00pm 23.4 21.1 17.6 70 3.6 E 26 35 14 19 1021.8 1021.8 0.0
22/12:30pm 22.8 19.9 17.0 70 3.6 E 28 33 15 18 1021.9 1021.9 0.0
22/12:00pm 21.9 18.0 16.4 71 3.3 E 32 39 17 21 1022.2 1022.2 0.0
22/11:30am 22.3 18.8 17.4 74 3.0 E 32 39 17 21 1022.3 1022.3 0.0
22/11:09am 22.1 19.0 17.5 75 2.8 E 30 44 16 24 1022.7 1022.7 0.0
22/11:00am 21.5 18.1 16.7 74 2.9 E 30 39 16 21 1022.8 1022.8 0.0
22/10:30am 20.8 16.7 16.4 76 2.7 E 33 44 18 24 1023.0 1023.0 0.0
22/10:00am 20.2 15.7 16.4 79 2.3 E 35 44 19 24 1023.1 1023.1 0.0
22/09:30am 20.0 16.1 16.4 80 2.2 E 32 44 17 24 1023.2 1023.2 0.0
22/09:00am 19.0 14.7 16.0 83 1.8 E 33 44 18 24 1023.5 1023.5 0.0
22/08:30am 18.8 14.2 16.2 85 1.6 E 35 46 19 25 1023.4 1023.4 0.0
22/08:00am 18.3 14.2 15.9 86 1.4 E 32 46 17 25 1023.4 1023.4 0.0
22/07:30am 18.0 14.2 15.8 87 1.3 E 30 43 16 23 1023.3 1023.3 0.0
22/07:00am 17.7 13.8 15.5 87 1.3 E 30 41 16 22 1023.0 1023.0 0.0
22/06:30am 17.6 13.7 15.4 87 1.3 ENE 30 43 16 23 1023.1 1023.1 0.0
22/06:00am 17.4 12.9 15.4 88 1.2 E 33 48 18 26 1022.6 1022.6 0.0
22/05:30am 17.1 12.8 15.4 90 1.0 E 32 50 17 27 1022.4 1022.4 0.0
22/05:29am 17.1 12.8 15.4 90 1.0 E 32 50 17 27 1022.4 1022.4 0.0
22/05:00am 17.1 12.9 15.6 91 0.9 E 32 41 17 22 1022.7 1022.7 0.0
22/04:33am 16.8 12.5 15.5 92 0.8 E 32 43 17 23 1022.6 1022.6 0.0
22/04:30am 16.9 12.5 15.6 92 0.8 E 33 43 18 23 1022.6 1022.6 0.0
22/04:10am 16.9 12.5 15.6 92 0.8 E 33 43 18 23 1022.5 1022.5 0.0
22/04:00am 16.9 12.7 15.6 92 0.8 E 32 48 17 26 1022.6 1022.6 0.0
22/03:30am 17.0 13.1 15.5 91 0.9 E 30 43 16 23 1023.4 1023.4 0.0
22/03:00am 16.9 12.9 15.2 90 1.0 E 30 39 16 21 1023.4 1023.4 0.0
22/02:30am 17.2 14.0 15.4 89 1.1 E 26 35 14 19 1024.0 1024.0 0.0
22/02:00am 17.2 13.4 15.7 91 0.9 E 30 48 16 26 1024.2 1024.2 0.0
22/01:57am 17.1 13.2 15.6 91 0.9 E 30 48 16 26 1024.2 1024.2 0.0
22/01:30am 17.1 12.8 16.0 93 0.6 E 33 44 18 24 1024.6 1024.6 0.0
22/01:00am 17.0 12.7 16.0 94 0.6 E 33 44 18 24 1024.9 1024.8 0.0
22/12:54am 16.9 12.9 16.1 95 0.5 E 32 44 17 24 1025.0 1024.9 0.0
22/12:30am 16.7 12.9 15.7 94 0.6 E 30 39 16 21 1025.2 1025.1 0.0
22/12:00am 16.7 13.2 15.6 93 0.6 E 28 35 15 19 1025.2 1025.1 0.0
 
Date/Time
EDT
Temp
°C
App
Temp
°C
Dew
Point
°C
Rel
Hum
%
Delta-T
°C
Wind Press
QNH
hPa
Press
MSL
hPa
Rain since
9am
mm
Dir  Spd
km/h
Gust
km/h
Spd
kts
Gust
kts
21/11:30pm 16.7 12.8 15.4 92 0.8 E 30 41 16 22 1025.0 1024.9 0.0
21/11:00pm 16.8 12.9 15.5 92 0.8 E 30 41 16 22 1025.2 1025.1 0.0
21/10:30pm 16.9 12.6 15.4 91 0.9 E 32 41 17 22 1025.4 1025.3 0.0
21/10:00pm 16.9 13.4 15.4 91 0.9 E 28 37 15 20 1025.5 1025.4 0.0
21/09:30pm 17.1 13.7 15.8 92 0.8 E 28 39 15 21 1025.5 1025.4 0.0
21/09:00pm 17.3 14.2 15.6 90 1.0 E 26 33 14 18 1025.5 1025.4 0.0
21/08:30pm 18.0 14.3 15.1 83 1.7 E 28 41 15 22 1025.5 1025.4 0.0
21/08:00pm 18.7 14.9 14.8 78 2.3 E 28 39 15 21 1025.4 1025.3 0.0
21/07:30pm 19.5 15.2 14.5 73 2.9 E 30 39 16 21 1025.1 1025.0 0.0
21/07:00pm 20.1 15.5 14.5 70 3.2 E 32 41 17 22 1025.1 1025.0 0.0
21/06:30pm 20.5 15.3 14.6 69 3.5 E 35 44 19 24 1025.5 1025.4 0.0
21/06:00pm 21.2 16.3 14.4 65 4.0 E 33 44 18 24 1025.5 1025.4 0.0
21/05:30pm 21.9 17.8 14.8 64 4.2 ENE 30 44 16 24 1025.6 1025.5 0.0
21/05:00pm 22.4 17.6 14.5 61 4.6 E 33 43 18 23 1025.6 1025.5 0.0
21/04:30pm 22.7 18.7 15.3 63 4.4 ENE 30 39 16 21 1025.9 1025.8 0.0
21/04:00pm 22.2 17.7 15.5 66 4.0 E 33 43 18 23 1026.2 1026.1 0.0
21/03:30pm 22.3 17.7 16.1 68 3.7 E 35 46 19 25 1026.4 1026.3 0.0
21/03:00pm 22.7 18.9 16.7 69 3.7 ENE 32 41 17 22 1026.8 1026.7 0.0
21/02:30pm 22.4 18.0 16.7 70 3.5 E 35 43 19 23 1027.0 1026.9 0.0
21/02:00pm 21.6 16.7 15.4 68 3.7 E 35 46 19 25 1027.3 1027.2 0.0
21/01:30pm 22.1 17.9 16.1 69 3.6 ENE 33 43 18 23 1027.6 1027.5 0.0
21/01:00pm 21.4 16.6 15.7 70 3.4 ENE 35 43 19 23 1027.9 1027.8 0.0
21/12:30pm 21.4 16.9 15.3 68 3.6 E 33 46 18 25 1028.1 1028.0 0.0
21/12:00pm 20.8 15.9 15.4 71 3.2 ENE 35 46 19 25 1028.3 1028.2 0.0
21/11:30am 20.8 15.2 15.6 72 3.1 E 39 48 21 26 1028.5 1028.4 0.0
21/11:00am 20.5 14.8 15.3 72 3.1 E 39 46 21 25 1028.5 1028.4 0.0
21/10:30am 20.5 15.2 15.3 72 3.1 E 37 52 20 28 1028.4 1028.3 0.0
21/10:00am 20.1 15.1 15.1 73 2.9 E 35 50 19 27 1028.6 1028.5 0.0
21/09:30am 19.3 14.1 14.6 74 2.7 ENE 35 52 19 28 1028.6 1028.5 0.0
21/09:00am 19.0 13.5 14.7 76 2.5 ENE 37 50 20 27 1028.5 1028.4 0.0
21/08:30am 18.4 12.8 14.5 78 2.3 E 37 52 20 28 1028.4 1028.3 0.0
21/08:00am 17.8 12.2 14.5 81 1.9 ENE 37 50 20 27 1028.4 1028.3 0.0
21/07:50am 17.4 12.5 14.3 82 1.8 ENE 33 52 18 28 1028.3 1028.2 0.0
21/07:30am 17.1 13.2 14.4 84 1.5 ENE 28 41 15 22 1028.6 1028.5 0.0
21/07:15am 17.0 12.7 14.3 84 1.5 ENE 30 48 16 26 1028.5 1028.4 0.0
21/07:00am 16.7 13.0 14.0 84 1.5 ENE 26 35 14 19 1028.5 1028.4 0.0
21/06:30am 16.4 10.5 13.7 84 1.5 E 37 50 20 27 1027.5 1027.4 0.0
21/06:12am 16.5 12.4 13.8 84 1.5 ENE 28 46 15 25 1027.9 1027.8 0.0
21/06:00am 16.6 11.7 13.7 83 1.6 ENE 32 43 17 23 1027.7 1027.6 0.0
21/05:43am 16.4 11.2 13.5 83 1.6 ENE 33 52 18 28 1027.4 1027.3 0.0
21/05:30am 16.4 10.9 13.7 84 1.5 E 35 50 19 27 1027.0 1026.9 0.0
21/05:00am 16.5 11.7 14.0 85 1.4 ENE 32 43 17 23 1027.2 1027.1 0.0
21/04:30am 16.3 11.5 14.0 86 1.3 E 32 44 17 24 1027.1 1027.0 0.0
21/04:00am 16.4 11.6 14.1 86 1.3 E 32 44 17 24 1027.4 1027.3 0.0
21/03:49am 16.3 11.4 13.8 85 1.4 E 32 50 17 27 1027.6 1027.5 0.0
21/03:30am 16.2 11.4 13.9 86 1.3 ENE 32 43 17 23 1027.7 1027.6 0.0
21/03:00am 16.3 12.3 14.1 87 1.2 ENE 28 39 15 21 1027.9 1027.8 0.0
21/02:46am 16.3 11.9 14.1 87 1.3 ENE 30 41 16 22 1027.9 1027.8 0.0
21/02:30am 16.3 13.0 14.1 87 1.3 ENE 24 33 13 18 1028.1 1028.0 0.0
21/02:00am 16.3 12.4 14.3 88 1.1 ENE 28 37 15 20 1028.3 1028.2 0.0
21/01:30am 16.3 12.7 14.3 88 1.1 ENE 26 37 14 20 1028.2 1028.1 0.0
21/01:20am 16.3 12.7 14.3 88 1.1 ENE 26 44 14 24 1028.3 1028.2 0.0
21/01:00am 16.2 11.5 14.2 88 1.1 E 32 43 17 23 1028.0 1027.9 0.0
21/12:30am 16.3 10.6 14.1 87 1.3 E 37 50 20 27 1027.9 1027.8 0.0
21/12:00am 16.2 11.7 13.7 85 1.4 E 30 41 16 22 1028.4 1028.3 0.0
 
Date/Time
EDT
Temp
°C
App
Temp
°C
Dew
Point
°C
Rel
Hum
%
Delta-T
°C
Wind Press
QNH
hPa
Press
MSL
hPa
Rain since
9am
mm
Dir  Spd
km/h
Gust
km/h
Spd
kts
Gust
kts
20/11:30pm 16.1 11.2 13.6 85 1.4 E 32 44 17 24 1028.3 1028.2 0.0
20/11:00pm 16.3 12.1 13.6 84 1.5 E 28 41 15 22 1028.4 1028.3 0.0
20/10:30pm 16.2 10.7 13.5 84 1.5 E 35 50 19 27 1028.3 1028.2 0.0
20/10:19pm 16.3 11.2 13.6 84 1.5 E 33 52 18 28 1028.1 1028.0 0.0
20/10:00pm 16.3 10.7 13.2 82 1.7 E 35 48 19 26 1028.1 1028.0 0.0
20/09:44pm 16.3 11.2 13.0 81 1.8 E 32 50 17 27 1028.0 1027.9 0.0
20/09:30pm 16.3 10.9 12.8 80 1.9 E 33 44 18 24 1027.9 1027.8 0.0
20/09:00pm 16.5 11.1 12.8 79 2.0 E 33 46 18 25 1028.0 1027.9 0.0
20/08:30pm 17.0 11.3 12.9 77 2.3 E 35 50 19 27 1027.9 1027.8 0.0
20/08:00pm 17.6 11.1 12.9 74 2.6 E 39 56 21 30 1027.8 1027.7 0.0
20/07:30pm 18.2 11.7 12.9 71 3.0 E 39 52 21 28 1027.9 1027.8 0.0
20/07:00pm 18.7 11.4 12.7 68 3.3 E 43 59 23 32 1027.9 1027.8 0.0
20/06:38pm 19.2 12.8 13.2 68 3.4 E 39 57 21 31 1028.0 1027.9 0.0
20/06:30pm 19.0 11.7 12.7 67 3.5 E 43 57 23 31 1027.9 1027.8 0.0
20/06:00pm 19.4 12.1 12.7 65 3.7 E 43 56 23 30 1028.1 1028.0 0.0
20/05:30pm 19.6 12.6 12.4 63 4.0 E 41 56 22 30 1028.2 1028.1 0.0
20/05:00pm 20.0 12.7 12.7 63 4.1 E 43 56 23 30 1028.5 1028.4 0.0
20/04:30pm 20.2 13.6 12.7 62 4.2 E 39 56 21 30 1028.8 1028.7 0.0
20/04:00pm 20.4 13.6 13.1 63 4.1 E 41 61 22 33 1028.9 1028.8 0.0
20/03:40pm 20.1 12.9 13.1 64 4.0 E 43 61 23 33 1029.2 1029.1 0.0
20/03:30pm 20.1 12.8 13.3 65 3.9 E 44 57 24 31 1029.3 1029.2 0.0
20/03:03pm 20.2 13.4 13.2 64 4.0 E 41 59 22 32 1029.6 1029.5 0.0
20/03:00pm 20.6 13.5 13.3 63 4.1 ENE 43 59 23 32 1029.6 1029.5 0.0
20/02:30pm 20.1 12.0 13.3 65 3.9 E 48 59 26 32 1029.7 1029.6 0.0
20/02:12pm 19.9 12.6 12.9 64 4.0 E 43 61 23 33 1029.8 1029.7 0.0
20/02:00pm 20.0 12.8 13.0 64 3.9 E 43 57 23 31 1029.9 1029.8 0.0
20/01:30pm 20.1 13.1 12.6 62 4.2 E 41 52 22 28 1030.1 1030.0 0.0
20/01:00pm 20.7 14.5 13.9 65 3.9 E 39 57 21 31 1030.4 1030.3 0.0
20/12:47pm 20.1 13.4 13.3 65 3.9 E 41 59 22 32 1030.5 1030.4 0.0
20/12:30pm 20.2 13.6 12.7 62 4.2 ENE 39 50 21 27 1030.6 1030.5 0.0
20/12:00pm 19.8 12.8 12.6 63 4.0 E 41 54 22 29 1030.7 1030.6 0.0
20/11:30am 19.9 13.6 12.4 62 4.2 ENE 37 52 20 28 1030.7 1030.6 0.0
20/11:00am 19.5 13.2 12.3 63 4.0 E 37 52 20 28 1030.8 1030.7 0.0
20/10:30am 19.9 13.7 12.7 63 4.1 E 37 52 20 28 1030.9 1030.8 0.0
20/10:02am 18.9 12.1 10.7 59 4.4 E 37 56 20 30 1030.8 1030.7 0.0
20/10:00am 19.6 13.2 12.1 62 4.1 E 37 50 20 27 1030.8 1030.7 0.0
20/09:35am 18.8 12.9 11.1 61 4.2 E 33 52 18 28 1030.9 1030.8 0.0
20/09:30am 18.8 12.7 11.9 64 3.8 ENE 35 48 19 26 1030.9 1030.8 0.0
20/09:11am 19.4 14.7 13.3 68 3.5 ENE 30 48 16 26 1031.0 1030.9 0.0
20/09:00am 18.0 12.0 12.0 68 3.3 ENE 35 46 19 25 1030.8 1030.7 0.0
20/08:30am 18.0 12.8 12.7 71 3.0 E 32 48 17 26 1030.6 1030.5 0.0
20/08:26am 17.9 13.3 12.4 70 3.1 E 28 48 15 26 1030.6 1030.5 0.0
20/08:00am 17.1 13.9 11.8 71 2.9 ENE 20 35 11 19 1030.7 1030.6 0.0
20/07:30am 16.5 13.2 11.6 73 2.7 ENE 20 32 11 17 1030.5 1030.4 0.0
20/07:00am 15.7 12.5 11.9 78 2.1 ENE 20 26 11 14 1030.3 1030.2 0.0
20/06:30am 15.2 12.0 11.4 78 2.0 ENE 19 24 10 13 1030.1 1030.0 0.0
20/06:00am 15.0 11.7 11.6 80 1.8 E 20 28 11 15 1030.2 1030.1 0.0
20/05:30am 15.3 11.5 11.3 77 2.1 E 22 35 12 19 1029.9 1029.8 0.0
20/05:00am 15.4 12.0 11.2 76 2.2 E 20 30 11 16 1029.8 1029.7 0.0
20/04:30am 15.6 11.4 11.0 74 2.5 E 24 35 13 19 1029.5 1029.4 0.0
20/04:00am 15.5 11.4 11.5 77 2.1 E 24 32 13 17 1029.7 1029.6 0.0
20/03:30am 15.1 11.8 11.7 80 1.8 E 20 28 11 15 1029.8 1029.7 0.0
20/03:00am 15.2 12.2 12.0 81 1.7 E 19 26 10 14 1030.0 1029.9 0.0
20/02:30am 15.6 11.6 11.8 78 2.1 E 24 35 13 19 1030.1 1030.0 0.0
20/02:00am 15.7 12.1 11.7 77 2.2 E 22 32 12 17 1030.2 1030.1 0.0
20/01:30am 15.6 12.0 11.8 78 2.1 E 22 32 12 17 1030.2 1030.1 0.0
20/01:00am 15.6 12.0 11.8 78 2.0 E 22 32 12 17 1030.4 1030.3 0.0
20/12:30am 15.8 12.7 12.2 79 2.0 ENE 20 28 11 15 1030.5 1030.4 0.0
20/12:00am 16.1 13.4 13.4 84 1.5 E 20 30 11 16 1030.3 1030.2 0.0
 
Date/Time
EDT
Temp
°C
App
Temp
°C
Dew
Point
°C
Rel
Hum
%
Delta-T
°C
Wind Press
QNH
hPa
Press
MSL
hPa
Rain since
9am
mm
Dir  Spd
km/h
Gust
km/h
Spd
kts
Gust
kts
19/11:30pm 15.9 13.4 13.4 85 1.4 E 19 26 10 14 1030.4 1030.3 0.0
19/11:00pm 15.8 13.0 13.3 85 1.4 E 20 26 11 14 1030.2 1030.1 0.0
19/10:30pm 15.8 13.2 13.3 85 1.4 E 19 26 10 14 1030.3 1030.2 0.0
19/10:00pm 15.9 12.7 13.2 84 1.5 E 22 28 12 15 1029.8 1029.7 0.0

Other formats

Comma delimited format used in spreadsheet applications
http://www.bom.gov.au/fwo/IDT60801/IDT60801.94850.axf

JavaScript Object Notation format (JSON) in row-major order
http://www.bom.gov.au/fwo/IDT60801/IDT60801.94850.json

Data quality

Most of these data are generated automatically and are frequently updated. Quality checks on data are not normally performed. It is possible for incorrect values to appear. Refer to information at About Latest Weather Observations and please check the disclaimer before using these data.